Time;durP1;ratioP1;P1;durP2;ratioP2;P2;SDS_P1;SDS_P2;PMS_P1;PMS_P2;Temp;Humidity;BMP_temperature;BMP_pressure;BME280_temperature;BME280_humidity;BME280_pressure;Samples;Min_cycle;Max_cycle;Signal;HPM_P1;HPM_P2
2021/12/23 00:01:00;;;;;;;25.77;14.95;;;;;;;;;;5076371;28;20044;-79
2021/12/23 00:03:26;;;;;;;29.40;16.42;;;;;;;;;;5093073;28;20412;-79
2021/12/23 00:05:55;;;;;;;26.85;14.32;;;;;;;;;;5093296;28;20051;-79
2021/12/23 00:08:22;;;;;;;28.95;16.33;;;;;;;;;;5093100;28;20044;-79
2021/12/23 00:10:48;;;;;;;29.67;16.42;;;;;;;;;;5093107;28;20101;-80
2021/12/23 00:13:14;;;;;;;24.92;15.38;;;;;;;;;;5075652;28;20044;-79
2021/12/23 00:16:03;;;;;;;28.13;15.70;;;;;;;;;;5076140;28;20134;-79
2021/12/23 00:23:45;;;;;;;30.02;15.38;;;;;;;;;;5078867;28;20101;-79
2021/12/23 00:26:11;;;;;;;27.58;15.55;;;;;;;;;;5092923;28;20047;-79
2021/12/23 00:28:37;;;;;;;24.30;15.18;;;;;;;;;;5075830;28;20506;-79
2021/12/23 00:31:06;;;;;;;25.95;15.77;;;;;;;;;;5076091;28;20080;-79
2021/12/23 00:33:35;;;;;;;29.42;15.98;;;;;;;;;;5092237;28;20462;-79
2021/12/23 00:36:03;;;;;;;29.13;15.15;;;;;;;;;;5075091;28;20109;-80
2021/12/23 00:38:34;;;;;;;25.77;15.90;;;;;;;;;;5092568;28;20387;-79
2021/12/23 00:41:02;;;;;;;28.55;15.18;;;;;;;;;;5092874;28;20068;-79
2021/12/23 00:43:28;;;;;;;25.92;15.15;;;;;;;;;;5075501;28;20125;-79
2021/12/23 00:45:54;;;;;;;;;;;;;;;;;;5092883;28;20488;-79
2021/12/23 00:48:21;;;;;;;30.48;15.30;;;;;;;;;;5093857;28;20317;-79
2021/12/23 00:50:47;;;;;;;23.77;14.63;;;;;;;;;;5092907;28;20047;-79
2021/12/23 00:53:18;;;;;;;25.75;14.90;;;;;;;;;;5075414;28;20178;-79
2021/12/23 00:55:47;;;;;;;23.98;14.57;;;;;;;;;;5075926;28;20543;-79
2021/12/23 00:58:13;;;;;;;29.02;15.48;;;;;;;;;;5075405;28;20117;-79
2021/12/23 01:00:39;;;;;;;30.17;16.48;;;;;;;;;;5092386;28;20048;-79
2021/12/23 01:03:05;;;;;;;25.50;15.45;;;;;;;;;;5092718;28;20048;-79
2021/12/23 01:05:32;;;;;;;28.10;15.18;;;;;;;;;;5075644;28;20040;-79
2021/12/23 01:07:58;;;;;;;25.17;15.93;;;;;;;;;;5075627;28;20094;-79
2021/12/23 01:10:24;;;;;;;27.42;15.55;;;;;;;;;;5059078;28;20054;-79
2021/12/23 01:12:56;;;;;;;29.52;16.13;;;;;;;;;;5075338;28;20464;-79
2021/12/23 01:17:56;;;;;;;27.90;15.63;;;;;;;;;;5092321;28;20062;-79
2021/12/23 01:20:28;;;;;;;30.85;15.90;;;;;;;;;;5075878;28;20055;-79
2021/12/23 01:22:56;;;;;;;29.88;16.40;;;;;;;;;;5092375;28;20087;-79
2021/12/23 01:25:23;;;;;;;25.50;15.05;;;;;;;;;;5092351;28;20044;-78
2021/12/23 01:27:49;;;;;;;25.98;15.77;;;;;;;;;;5091998;28;20048;-79
2021/12/23 01:30:17;;;;;;;33.13;15.95;;;;;;;;;;5092307;28;20059;-79
2021/12/23 01:32:44;;;;;;;25.27;15.75;;;;;;;;;;5075488;28;20083;-78
2021/12/23 01:35:10;;;;;;;24.40;15.27;;;;;;;;;;5092212;28;20396;-79
2021/12/23 01:37:36;;;;;;;27.95;15.55;;;;;;;;;;5091865;28;20446;-78
2021/12/23 01:40:03;;;;;;;26.38;15.95;;;;;;;;;;5092465;28;20048;-79
2021/12/23 01:42:29;;;;;;;31.65;15.98;;;;;;;;;;5074989;28;20054;-79
2021/12/23 01:44:55;;;;;;;28.83;16.42;;;;;;;;;;5092112;28;20044;-78
2021/12/23 01:47:21;;;;;;;27.25;15.95;;;;;;;;;;5078364;28;20048;-80
2021/12/23 01:49:47;;;;;;;25.67;15.52;;;;;;;;;;5095875;28;20087;-83
2021/12/23 01:52:13;;;;;;;27.40;17.27;;;;;;;;;;5078878;28;20039;-79
2021/12/23 01:54:39;;;;;;;32.03;17.02;;;;;;;;;;5078859;28;20051;-79
2021/12/23 01:57:06;;;;;;;29.88;17.38;;;;;;;;;;5095589;28;20082;-79
2021/12/23 01:59:32;;;;;;;30.08;18.60;;;;;;;;;;5078621;28;20046;-75
2021/12/23 02:01:59;;;;;;;30.02;18.25;;;;;;;;;;5096454;28;20131;-76
2021/12/23 02:04:25;;;;;;;30.75;18.80;;;;;;;;;;5095519;28;20104;-78
2021/12/23 02:06:51;;;;;;;33.10;18.25;;;;;;;;;;5095388;28;20044;-77
2021/12/23 02:09:18;;;;;;;32.42;18.70;;;;;;;;;;5095636;28;20139;-79
2021/12/23 02:11:44;;;;;;;30.08;17.20;;;;;;;;;;5095184;28;20040;-77
2021/12/23 02:14:10;;;;;;;;;;;0.00;99.90;;;;;;5078936;28;20056;-78
2021/12/23 02:16:36;;;;;;;26.33;16.63;;;;;;;;;;5095317;28;20230;-78
2021/12/23 02:19:05;;;;;;;29.70;17.58;;;;;;;;;;5095013;28;20048;-78
2021/12/23 02:21:31;;;;;;;32.05;18.45;;;;;;;;;;5096188;28;20051;-78
2021/12/23 02:23:57;;;;;;;32.33;18.40;;;;;;;;;;5095279;28;20044;-78
2021/12/23 02:26:23;;;;;;;32.33;17.95;;;;;;;;;;5094827;28;20044;-79
2021/12/23 02:28:49;;;;;;;33.35;18.63;;;;;;;;;;5095110;28;20059;-79
2021/12/23 02:31:16;;;;;;;31.98;18.58;;;;;;;;;;5095085;28;20139;-79
2021/12/23 02:33:42;;;;;;;35.83;17.73;;;;;;;;;;5077647;28;20052;-80
2021/12/23 02:36:11;;;;;;;29.00;17.77;;;;;;;;;;5078089;28;20483;-78
2021/12/23 02:38:37;;;;;;;28.13;16.25;;;;;;;;;;5094933;28;20431;-78
2021/12/23 02:41:03;;;;;;;28.15;17.65;;;;;;;;;;5094637;28;20047;-79
2021/12/23 02:43:29;;;;;;;33.90;18.92;;;;;;;;;;5078059;28;20388;-79
2021/12/23 02:45:56;;;;;;;35.63;19.10;;;;;;;;;;5094797;28;20043;-79
2021/12/23 02:48:24;;;;;;;30.25;18.00;;;;;;;;;;5077884;28;20044;-79
2021/12/23 02:50:51;;;;;;;30.88;17.80;;;;;;;;;;5077780;28;20083;-78
2021/12/23 02:53:18;;;;;;;33.22;18.85;;;;;;;;;;5094403;28;20047;-79
2021/12/23 02:55:44;;;;;;;34.38;18.75;;;;;;;;;;5094306;28;20484;-79
2021/12/23 02:58:10;;;;;;;34.00;17.80;;;;;;;;;;5077104;28;20135;-79
2021/12/23 03:00:38;;;;;;;35.20;18.85;;;;;;;;;;5077671;28;20051;-79
2021/12/23 03:03:04;;;;;;;34.40;17.70;;;;;;;;;;5077774;28;20040;-79
2021/12/23 03:05:30;;;;;;;33.45;18.60;;;;;;;;;;5094498;28;20044;-78
2021/12/23 03:07:56;;;;;;;31.80;17.85;;;;;;;;;;5077211;28;20488;-79
2021/12/23 03:10:22;;;;;;;30.45;17.77;;;;;;;;;;5077525;28;20044;-78
2021/12/23 03:12:49;;;;;;;34.28;17.95;;;;;;;;;;5094064;28;20051;-81
2021/12/23 03:15:15;;;;;;;35.58;18.40;;;;;;;;;;5094117;28;20140;-78
2021/12/23 03:17:41;;;;;;;31.50;17.73;;;;;;;;;;5093969;28;20488;-78
2021/12/23 03:20:07;;;;;;;32.80;17.33;;;;;;;;;;5077360;28;20515;-78
2021/12/23 03:22:33;;;;;;;31.83;18.13;;;;;;;;;;5076972;28;20036;-79
2021/12/23 03:24:59;;;;;;;23.98;15.63;;;;;;;;;;5093940;28;20044;-79
2021/12/23 03:27:25;;;;;;;30.17;17.45;;;;;;;;;;5077089;28;20047;-79
2021/12/23 03:29:52;;;;;;;28.95;16.85;;;;;;;;;;5093842;28;20044;-79
2021/12/23 03:32:18;;;;;;;29.20;17.30;;;;;;;;;;5076861;28;20043;-79
2021/12/23 03:34:44;;;;;;;31.20;16.60;;;;;;;;;;5093403;28;20081;-79
2021/12/23 03:37:10;;;;;;;36.03;19.00;;;;;;;;;;5076551;28;20226;-79
2021/12/23 03:39:36;;;;;;;31.92;17.13;;;;;;;;;;5093716;28;20074;-79
2021/12/23 03:42:03;;;;;;;32.05;18.25;;;;;;;;;;5076970;28;20101;-79
2021/12/23 03:44:29;;;;;;;28.52;17.40;;;;;;;;;;5076715;28;20407;-79
2021/12/23 03:46:55;;;;;;;28.25;16.98;;;;;;;;;;5076690;28;20048;-79
2021/12/23 03:49:21;;;;;;;29.50;18.15;;;;;;;;;;5093583;28;20154;-80
2021/12/23 03:51:47;;;;;;;30.88;18.27;;;;;;;;;;5093095;28;20040;-79
2021/12/23 03:54:13;;;;;;;28.95;17.55;;;;;;;;;;5076554;28;20472;-78
2021/12/23 03:56:39;;;;;;;31.00;17.33;;;;;;;;;;5059928;28;20496;-79
2021/12/23 03:59:05;;;;;;;29.33;17.60;;;;;;;;;;5093336;28;20130;-78
2021/12/23 04:01:31;;;;;;;29.90;17.45;;;;;;;;;;5093332;28;20095;-79
2021/12/23 04:03:58;;;;;;;31.88;17.35;;;;;;;;;;5076389;28;20043;-78
2021/12/23 04:06:26;;;;;;;;;;;;;;;;;;5093466;28;20047;-78
2021/12/23 04:08:52;;;;;;;28.52;17.25;;;;;;;;;;5092827;28;19920;-79
2021/12/23 04:11:18;;;;;;;30.80;18.50;;;;;;;;;;5075873;28;20055;-78
2021/12/23 04:13:44;;;;;;;32.83;17.08;;;;;;;;;;5076124;28;20044;-79
2021/12/23 04:16:11;;;;;;;31.40;18.13;;;;;;;;;;5093251;28;20441;-79
2021/12/23 04:18:37;;;;;;;28.75;17.30;;;;;;;;;;5093168;28;20051;-79
2021/12/23 04:21:03;;;;;;;29.27;16.80;;;;;;;;;;5092748;28;20506;-79
2021/12/23 04:23:30;;;;;;;28.92;17.63;;;;;;;;;;5076274;28;20052;-79
2021/12/23 04:25:57;;;;;;;33.08;17.73;;;;;;;;;;5092913;28;20055;-78
2021/12/23 04:28:24;;;;;;;30.25;16.88;;;;;;;;;;5076076;28;20502;-79
2021/12/23 04:30:50;;;;;;;28.52;17.67;;;;;;;;;;5092653;28;20381;-79
2021/12/23 04:33:16;;;;;;;35.40;18.25;;;;;;;;;;5075504;28;20055;-79
2021/12/23 04:35:42;;;;;;;29.85;17.17;;;;;;;;;;5092478;28;20052;-79
2021/12/23 04:38:08;;;;;;;29.33;17.88;;;;;;;;;;5092831;28;20450;-78
2021/12/23 04:40:35;;;;;;;28.50;17.50;;;;;;;;;;5076020;28;20109;-79
2021/12/23 04:43:02;;;;;;;31.48;18.10;;;;;;;;;;5075872;28;20048;-79
2021/12/23 04:45:28;;;;;;;33.00;18.27;;;;;;;;;;5092918;28;20131;-79
2021/12/23 04:47:55;;;;;;;31.92;18.38;;;;;;;;;;5075811;28;20058;-78
2021/12/23 04:50:21;;;;;;;35.03;18.88;;;;;;;;;;5092458;28;20117;-78
2021/12/23 04:52:47;;;;;;;30.00;18.35;;;;;;;;;;5092514;28;20080;-79
2021/12/23 04:55:14;;;;;;;31.02;18.02;;;;;;;;;;5076121;28;20044;-79
2021/12/23 04:57:40;;;;;;;34.42;18.67;;;;;;;;;;5092489;28;20442;-79
2021/12/23 05:00:08;;;;;;;30.08;17.95;;;;;;;;;;5092468;28;20056;-79
2021/12/23 05:02:34;;;;;;;34.05;18.42;;;;;;;;;;5092381;28;20048;-80
2021/12/23 05:05:00;;;;;;;29.75;17.80;;;;;;;;;;5075144;28;20066;-78
2021/12/23 05:07:26;;;;;;;30.90;18.10;;;;;;;;;;5058803;28;20476;-79
2021/12/23 05:09:52;;;;;;;31.77;18.33;;;;;;;;;;5075686;28;20509;-79
2021/12/23 05:12:18;;;;;;;31.08;18.60;;;;;;;;;;5075428;28;20442;-77
2021/12/23 05:14:44;;;;;;;30.17;18.08;;;;;;;;;;5092482;28;20131;-79
2021/12/23 05:17:10;;;;;;;34.00;18.23;;;;;;;;;;5092406;28;20040;-78
2021/12/23 05:19:37;;;;;;;31.05;18.92;;;;;;;;;;5058684;28;20507;-77
2021/12/23 05:22:03;;;;;;;30.58;20.00;;;;;;;;;;5078317;28;20442;-76
2021/12/23 05:24:29;;;;;;;30.20;18.90;;;;;;;;;;5096354;28;20101;-79
2021/12/23 05:26:55;;;;;;;34.78;19.45;;;;;;;;;;5079386;28;20392;-79
2021/12/23 05:29:21;;;;;;;34.67;18.45;;;;;;;;;;5096306;28;20047;-79
2021/12/23 05:31:47;;;;;;;32.58;19.13;;;;;;;;;;5062437;28;20487;-79
2021/12/23 05:34:13;;;;;;;31.90;18.85;;;;;;;;;;5095454;28;20511;-79
2021/12/23 05:36:41;;;;;;;33.20;18.25;;;;;;;;;;5095755;28;20051;-77
2021/12/23 05:39:07;;;;;;;32.67;19.15;;;;;;;;;;5079091;28;20048;-78
2021/12/23 05:41:34;;;;;;;31.70;19.00;;;;;;;;;;5078851;28;20048;-79
2021/12/23 05:44:01;;;;;;;;;;;0.20;99.90;;;;;;5096316;28;20047;-79
2021/12/23 05:46:27;;;;;;;35.28;19.10;;;;;;;;;;5095650;28;19920;-78
2021/12/23 05:48:53;;;;;;;36.17;19.20;;;;;;;;;;5095666;28;20048;-78
2021/12/23 05:51:19;;;;;;;35.33;19.05;;;;;;;;;;5095985;28;20071;-79
2021/12/23 05:53:45;;;;;;;32.03;20.25;;;;;;;;;;5078429;28;20081;-78
2021/12/23 05:56:11;;;;;;;33.70;19.08;;;;;;;;;;5095487;28;20047;-78
2021/12/23 05:58:38;;;;;;;34.45;19.83;;;;;;;;;;5095716;28;20427;-78
2021/12/23 06:01:04;;;;;;;35.10;20.15;;;;;;;;;;5078794;28;20089;-78
2021/12/23 06:03:30;;;;;;;33.47;19.67;;;;;;;;;;5078500;28;20484;-79
2021/12/23 06:05:56;;;;;;;30.85;18.45;;;;;;;;;;5095517;28;20475;-77
2021/12/23 06:08:22;;;;;;;37.83;20.25;;;;;;;;;;5078621;28;20065;-78
2021/12/23 06:10:48;;;;;;;34.42;20.40;;;;;;;;;;5078798;28;20423;-79
2021/12/23 06:13:14;;;;;;;36.75;21.05;;;;;;;;;;5095483;28;20043;-78
2021/12/23 06:15:40;;;;;;;37.80;21.25;;;;;;;;;;5078552;28;20547;-80
2021/12/23 06:18:06;;;;;;;36.67;20.73;;;;;;;;;;5078270;28;20400;-78
2021/12/23 06:20:32;;;;;;;39.72;21.17;;;;;;;;;;5095286;28;20472;-79
2021/12/23 06:22:58;;;;;;;36.75;20.38;;;;;;;;;;5096244;28;20055;-78
2021/12/23 06:25:24;;;;;;;35.72;20.50;;;;;;;;;;5078401;28;20070;-77
2021/12/23 06:27:51;;;;;;;41.35;20.95;;;;;;;;;;5061818;28;20483;-78
2021/12/23 06:30:18;;;;;;;35.60;20.42;;;;;;;;;;5095253;28;20040;-77
2021/12/23 06:32:49;;;;;;;38.80;22.45;;;;;;;;;;5076685;28;20476;-78
2021/12/23 06:35:16;;;;;;;39.72;22.70;;;;;;;;;;5095056;28;20471;-77
2021/12/23 06:37:42;;;;;;;;;;;0.70;99.90;;;;;;5078442;28;20087;-78
2021/12/23 06:40:08;;;;;;;37.65;21.63;;;;;;;;;;5094918;28;19927;-77
2021/12/23 06:42:34;;;;;;;37.20;20.90;;;;;;;;;;5078229;28;20048;-78
2021/12/23 06:45:01;;;;;;;34.67;20.30;;;;;;;;;;5094837;28;20076;-79
2021/12/23 06:47:27;;;;;;;43.05;22.63;;;;;;;;;;5077827;28;20048;-78
2021/12/23 06:49:53;;;;;;;40.28;21.88;;;;;;;;;;5094717;28;20044;-77
2021/12/23 06:52:19;;;;;;;40.00;22.25;;;;;;;;;;5094698;28;20135;-77
2021/12/23 06:54:48;;;;;;;41.42;21.90;;;;;;;;;;5094678;28;20117;-78
2021/12/23 06:57:14;;;;;;;39.65;22.08;;;;;;;;;;5077798;28;20099;-78
2021/12/23 06:59:41;;;;;;;36.42;21.83;;;;;;;;;;5077596;28;20047;-80
2021/12/23 07:02:07;;;;;;;38.75;23.13;;;;;;;;;;5077481;28;20048;-78
2021/12/23 07:04:35;;;;;;;48.15;25.38;;;;;;;;;;5077778;28;20449;-77
2021/12/23 07:07:11;;;;;;;39.67;24.17;;;;;;;;;;5077894;28;20483;-78
2021/12/23 07:09:38;;;;;;;40.08;23.35;;;;;;;;;;5062616;28;20047;-76
2021/12/23 07:12:05;;;;;;;43.75;24.45;;;;;;;;;;5077236;28;20055;-74
2021/12/23 07:14:31;;;;;;;42.63;24.55;;;;;;;;;;5060560;28;20468;-77
2021/12/23 07:16:57;;;;;;;47.05;23.90;;;;;;;;;;5077385;28;20040;-78
2021/12/23 07:19:23;;;;;;;43.10;23.92;;;;;;;;;;5077497;28;20051;-77
2021/12/23 07:21:49;;;;;;;45.70;25.83;;;;;;;;;;5093882;28;20557;-76
2021/12/23 07:24:15;;;;;;;40.60;23.63;;;;;;;;;;5077025;28;20066;-78
2021/12/23 07:26:41;;;;;;;40.70;23.88;;;;;;;;;;5093858;28;20047;-77
2021/12/23 07:29:07;;;;;;;43.33;23.58;;;;;;;;;;5093714;28;20502;-78
2021/12/23 07:31:33;;;;;;;43.03;25.98;;;;;;;;;;5076682;28;20484;-76
2021/12/23 07:34:00;;;;;;;41.30;23.63;;;;;;;;;;5093458;28;20412;-79
2021/12/23 07:36:27;;;;;;;44.83;24.80;;;;;;;;;;5093924;28;20051;-77
2021/12/23 07:38:54;;;;;;;45.53;26.67;;;0.50;99.90;;;;;;5094685;28;20048;-75
2021/12/23 07:41:21;;;;;;;46.53;26.73;;;;;;;;;;5093597;28;20130;-76
2021/12/23 07:43:58;;;;;;;41.85;25.63;;;;;;;;;;5076519;28;20048;-76
2021/12/23 07:46:28;;;;;;;48.63;26.63;;;;;;;;;;5093680;28;20138;-76
2021/12/23 07:48:55;;;;;;;42.75;24.73;;;;;;;;;;5093437;28;20044;-77
2021/12/23 07:51:20;;;;;;;;;;;0.20;99.90;;;;;;5093921;28;20377;-76
2021/12/23 07:53:46;;;;;;;44.00;26.30;;;;;;;;;;5093170;28;20026;-77
2021/12/23 07:56:13;;;;;;;50.30;27.13;;;;;;;;;;5076534;28;20073;-78
2021/12/23 07:58:41;;;;;;;43.92;24.60;;;;;;;;;;5076679;28;20055;-78
2021/12/23 08:01:07;;;;;;;41.38;24.23;;;;;;;;;;5076581;28;20047;-79
2021/12/23 08:03:33;;;;;;;48.40;26.38;;;;;;;;;;5093330;28;20074;-77
2021/12/23 08:06:00;;;;;;;45.65;25.15;;;;;;;;;;5093285;28;20066;-76
2021/12/23 08:08:26;;;;;;;43.78;25.48;;;;;;;;;;5076257;28;20051;-79
2021/12/23 08:10:52;;;;;;;48.95;27.60;;;;;;;;;;5093223;28;20105;-76
2021/12/23 08:13:18;;;;;;;42.85;25.70;;;;;;;;;;5092680;28;20502;-79
2021/12/23 08:15:44;;;;;;;46.42;26.50;;;;;;;;;;5093267;28;20420;-77
2021/12/23 08:18:10;;;;;;;47.53;26.58;;;;;;;;;;5076286;28;20130;-76
2021/12/23 08:20:36;;;;;;;49.80;25.88;;;;;;;;;;5093015;28;20044;-75
2021/12/23 08:23:02;;;;;;;44.22;25.90;;;;;;;;;;5093068;28;20083;-78
2021/12/23 08:25:28;;;;;;;47.05;26.58;;;;;;;;;;5092906;28;20044;-80
2021/12/23 08:27:54;;;;;;;44.58;26.73;;;;;;;;;;5092587;28;20101;-80
2021/12/23 08:30:21;;;;;;;46.42;26.40;;;;;;;;;;5092705;28;20571;-81
2021/12/23 08:32:47;;;;;;;;;;;0.20;99.90;;;;;;5092831;28;20520;-81
2021/12/23 08:35:13;;;;;;;43.92;25.23;;;;;;;;;;5092787;28;19959;-80
2021/12/23 08:37:40;;;;;;;49.42;27.83;;;;;;;;;;5092579;28;20484;-78
2021/12/23 08:40:07;;;;;;;53.97;27.80;;;;;;;;;;5076040;28;20055;-77
2021/12/23 08:42:33;;;;;;;46.67;27.10;;;;;;;;;;5092575;28;20055;-79
2021/12/23 08:45:00;;;;;;;47.67;25.30;;;;;;;;;;5092780;28;20062;-81
2021/12/23 08:47:26;;;;;;;48.10;27.10;;;;;;;;;;5092667;28;20040;-81
2021/12/23 08:49:52;;;;;;;46.00;26.15;;;;;;;;;;5092706;28;20353;-78
2021/12/23 08:52:18;;;;;;;46.00;26.73;;;;;;;;;;5092607;28;20396;-77
2021/12/23 08:54:44;;;;;;;50.15;27.80;;;;;;;;;;5092608;28;20048;-79
2021/12/23 08:57:10;;;;;;;48.72;26.45;;;;;;;;;;5091876;28;20116;-80
2021/12/23 08:59:36;;;;;;;48.78;25.35;;;;;;;;;;5092666;28;20350;-81
2021/12/23 09:02:03;;;;;;;45.45;25.23;;;;;;;;;;5092442;28;20101;-78
2021/12/23 09:04:29;;;;;;;47.83;28.17;;;;;;;;;;5093298;28;20341;-80
2021/12/23 09:06:56;;;;;;;53.25;27.52;;;;;;;;;;5092506;28;20480;-82
2021/12/23 09:09:24;;;;;;;53.50;26.52;;;;;;;;;;5075705;28;20044;-79
2021/12/23 09:11:50;;;;;;;52.22;29.10;;;;;;;;;;5059006;28;20048;-78
2021/12/23 09:14:17;;;;;;;58.75;29.52;;;;;;;;;;5092193;28;20134;-81
2021/12/23 09:16:43;;;;;;;;;;;;;;;;;;5092862;28;20067;-80
2021/12/23 09:19:09;;;;;;;53.67;29.67;;;;;;;;;;5092383;28;20368;-80
2021/12/23 09:21:36;;;;;;;;;;;0.40;99.90;;;;;;5092713;28;20476;-78
2021/12/23 09:24:03;;;;;;;52.78;27.88;;;;;;;;;;5075391;28;19920;-80
2021/12/23 09:26:34;;;;;;;55.25;29.45;;;;;;;;;;5092018;28;20044;-81
2021/12/23 09:32:39;;;;;;;51.60;28.95;;;;;;;;;;5092122;28;20126;-81
2021/12/23 09:34:45;;;;;;;72.45;34.90;;;;;;;;;;5091770;28;20055;-77
2021/12/23 09:37:11;;;;;;;62.88;33.92;;;;;;;;;;5092826;28;20489;-78
2021/12/23 09:39:38;;;;;;;63.70;34.75;;;;;;;;;;5075500;28;20040;-76
2021/12/23 09:42:04;;;;;;;65.38;32.78;;;;;;;;;;5092777;28;20555;-76
2021/12/23 09:44:31;;;;;;;66.82;35.05;;;;;;;;;;5091848;28;20131;-75
2021/12/23 09:47:02;;;;;;;60.50;33.78;;;0.70;99.90;;;;;;5093044;28;20055;-75
2021/12/23 09:49:29;;;;;;;66.88;32.88;;;;;;;;;;5093116;28;20052;-75
2021/12/23 09:51:56;;;;;;;61.17;32.45;;;;;;;;;;5093053;28;20055;-75
2021/12/23 09:54:22;;;;;;;71.30;34.53;;;;;;;;;;5091815;28;20105;-76
2021/12/23 09:56:48;;;;;;;;;;;0.50;99.90;;;;;;5092410;28;20258;-75
2021/12/23 09:59:14;;;;;;;78.90;36.25;;;;;;;;;;5092983;28;19979;-74
2021/12/23 10:01:40;;;;;;;79.78;36.47;;;;;;;;;;5092965;28;20044;-74
2021/12/23 10:04:06;;;;;;;77.82;36.42;;;;;;;;;;5091980;28;20097;-75
2021/12/23 10:06:33;;;;;;;84.15;39.58;;;;;;;;;;5092913;28;20127;-74
2021/12/23 10:08:59;;;;;;;87.20;38.78;;;;;;;;;;5095097;28;20056;-74
2021/12/23 10:11:45;;;;;;;79.97;37.03;;;;;;;;;;5096593;28;20084;-74
2021/12/23 10:31:19;;;;;;;114.47;43.47;;;;;;;;;;5096245;28;20080;-76
2021/12/23 10:37:04;;;;;;;103.55;41.20;;;;;;;;;;5094947;28;20051;-76
2021/12/23 10:39:23;;;;;;;114.50;42.55;;;;;;;;;;5096089;28;20055;-75
2021/12/23 10:41:49;;;;;;;115.45;42.33;;;;;;;;;;5096165;28;20117;-77
2021/12/23 10:44:15;;;;;;;133.98;48.00;;;;;;;;;;5078028;28;20040;-76
2021/12/23 10:46:41;;;;;;;133.25;46.22;;;;;;;;;;5095836;28;20044;-76
2021/12/23 10:51:56;;;;;;;138.18;47.92;;;;;;;;;;5095824;28;20374;-74
2021/12/23 10:57:58;;;;;;;137.07;47.95;;;;;;;;;;5094441;28;20503;-74
2021/12/23 11:00:12;;;;;;;133.43;47.17;;;;;;;;;;5096194;28;20400;-75
2021/12/23 11:02:39;;;;;;;146.48;47.65;;;;;;;;;;5095528;28;20135;-74
2021/12/23 11:07:39;;;;;;;132.27;45.75;;;;;;;;;;5095268;28;20088;-76
2021/12/23 11:10:20;;;;;;;122.85;44.25;;;;;;;;;;5095433;28;20051;-76
2021/12/23 11:37:47;;;;;;;158.10;48.92;;;;;;;;;;5094616;28;20059;-75
2021/12/23 11:40:36;;;;;;;163.20;49.33;;;;;;;;;;5094825;28;20044;-74
2021/12/23 11:45:51;;;;;;;153.75;47.70;;;;;;;;;;5083587;28;20056;-72
2021/12/23 11:48:17;;;;;;;154.63;48.90;;;;;;;;;;5094536;28;20044;-73
2021/12/23 11:50:55;;;;;;;162.20;49.47;;;;;;;;;;5093941;28;20552;-73
2021/12/23 11:53:25;;;;;;;154.02;49.17;;;;;;;;;;5093148;28;20054;-72
2021/12/23 11:55:51;;;;;;;159.25;48.40;;;;;;;;;;5094206;28;20040;-72
2021/12/23 11:58:21;;;;;;;;;;;0.90;99.90;;;;;;5094770;28;20056;-73
2021/12/23 12:01:00;;;;;;;148.35;49.65;;;;;;;;;;5094223;28;20355;-72
2021/12/23 12:03:26;;;;;;;153.63;48.58;;;;;;;;;;5094297;28;20051;-70
2021/12/23 12:05:52;;;;;;;140.63;48.58;;;;;;;;;;5093925;28;20122;-71
2021/12/23 12:08:24;;;;;;;165.00;50.67;;;;;;;;;;5094156;28;20471;-71
2021/12/23 12:10:50;;;;;;;153.60;50.50;;;;;;;;;;5094082;28;20051;-71
2021/12/23 12:13:17;;;;;;;157.38;50.83;;;;;;;;;;5093643;28;20484;-71
2021/12/23 12:15:48;;;;;;;147.20;48.78;;;;;;;;;;5093938;28;20054;-71
2021/12/23 12:18:19;;;;;;;156.38;48.10;;;;;;;;;;5094020;28;20437;-71
2021/12/23 12:20:54;;;;;;;166.40;50.22;;;;;;;;;;5093638;28;20048;-72
2021/12/23 12:23:22;;;;;;;163.25;48.67;;;;;;;;;;5093893;28;20073;-71
2021/12/23 12:25:57;;;;;;;148.68;47.78;;;;;;;;;;5093812;28;20052;-71
2021/12/23 12:28:25;;;;;;;147.10;46.55;;;;;;;;;;5093735;28;20040;-71
2021/12/23 12:30:53;;;;;;;157.85;49.03;;;;;;;;;;5092876;28;20484;-71
2021/12/23 12:33:24;;;;;;;154.23;49.10;;;;;;;;;;5093201;28;20062;-71
2021/12/23 12:36:11;;;;;;;157.10;48.33;;;;;;;;;;5093525;28;20054;-71
2021/12/23 12:38:41;;;;;;;141.90;47.55;;;;;;;;;;5093480;28;20052;-71
2021/12/23 12:41:07;;;;;;;149.02;47.28;;;;;;;;;;5093554;28;20048;-70
2021/12/23 12:43:48;;;;;;;149.50;46.28;;;;;;;;;;5093491;28;20476;-70
2021/12/23 12:46:42;;;;;;;154.77;47.97;;;1.00;99.90;;;;;;5093608;28;20048;-70
2021/12/23 12:49:27;;;;;;;151.13;46.83;;;;;;;;;;5088000;28;20536;-70
2021/12/23 12:51:54;;;;;;;150.90;47.20;;;;;;;;;;5093405;28;20044;-70
2021/12/23 12:54:31;;;;;;;149.95;46.83;;;;;;;;;;5093360;28;20097;-69
2021/12/23 12:56:57;;;;;;;;;;;;;;;;;;5093864;28;20087;-69
2021/12/23 12:59:26;;;;;;;156.90;48.08;;;;;;;;;;5093339;28;19927;-69
2021/12/23 13:01:53;;;;;;;148.73;47.03;;;;;;;;;;5093283;28;20040;-69
2021/12/23 13:04:25;;;;;;;143.13;45.20;;;;;;;;;;5093079;28;20047;-69
2021/12/23 13:06:52;;;;;;;159.93;48.78;;;;;;;;;;5093263;28;20078;-69
2021/12/23 13:09:22;;;;;;;172.13;48.95;;;;;;;;;;5093249;28;20044;-69
2021/12/23 13:11:49;;;;;;;157.10;48.72;;;;;;;;;;5093273;28;20044;-70
2021/12/23 13:14:20;;;;;;;162.25;49.33;;;;;;;;;;5092785;28;20503;-69
2021/12/23 13:16:53;;;;;;;155.40;49.35;;;;;;;;;;5093276;28;20123;-70
2021/12/23 13:19:19;;;;;;;163.48;50.00;;;;;;;;;;5093194;28;20052;-69
2021/12/23 13:21:47;;;;;;;154.90;48.58;;;;;;;;;;5093051;28;20048;-69
2021/12/23 13:24:14;;;;;;;172.10;51.03;;;;;;;;;;5093075;28;20441;-69
2021/12/23 13:26:40;;;;;;;155.50;47.70;;;;;;;;;;5093125;28;20048;-69
2021/12/23 13:29:08;;;;;;;;;;;;;;;;;;5093466;28;20048;-69
2021/12/23 13:31:35;;;;;;;161.18;47.60;;;;;;;;;;5092829;28;19924;-69
2021/12/23 13:34:22;;;;;;;161.90;48.50;;;1.10;99.90;;;;;;5092936;28;20067;-69
2021/12/23 13:36:49;;;;;;;168.68;46.97;;;;;;;;;;5093146;28;20044;-69
2021/12/23 13:39:20;;;;;;;176.13;49.75;;;;;;;;;;5091816;28;20044;-69
2021/12/23 13:41:47;;;;;;;171.73;49.05;;;;;;;;;;5093727;28;20040;-69
2021/12/23 13:44:16;;;;;;;179.32;50.78;;;;;;;;;;5096961;28;20126;-69
2021/12/23 13:46:44;;;;;;;181.70;50.42;;;;;;;;;;5078804;28;20403;-68
2021/12/23 13:49:10;;;;;;;166.30;48.75;;;;;;;;;;5096533;28;20545;-69
2021/12/23 13:51:38;;;;;;;170.60;51.03;;;;;;;;;;5096707;28;20487;-69
2021/12/23 13:54:06;;;;;;;171.80;47.83;;;;;;;;;;5096760;28;20127;-69
2021/12/23 13:56:34;;;;;;;177.00;48.65;;;1.20;99.90;;;;;;5096848;28;20093;-69
2021/12/23 13:59:07;;;;;;;168.88;47.60;;;;;;;;;;5096700;28;20036;-69
2021/12/23 14:01:34;;;;;;;173.32;51.35;;;;;;;;;;5096431;28;20052;-68
2021/12/23 14:04:00;;;;;;;169.82;50.65;;;;;;;;;;5096152;28;20131;-69
2021/12/23 14:06:26;;;;;;;174.68;51.10;;;;;;;;;;5096335;28;20051;-69
2021/12/23 14:08:52;;;;;;;177.57;50.05;;;;;;;;;;5095402;28;20384;-69
2021/12/23 14:11:18;;;;;;;189.85;51.95;;;;;;;;;;5096524;28;20516;-68
2021/12/23 14:13:44;;;;;;;179.73;52.10;;;;;;;;;;5096372;28;20059;-68
2021/12/23 14:16:10;;;;;;;183.18;52.10;;;;;;;;;;5089710;28;20048;-69
2021/12/23 14:23:30;;;;;;;200.07;52.45;;;;;;;;;;5095042;28;20097;-69
2021/12/23 14:25:59;;;;;;;182.57;50.38;;;;;;;;;;5095595;28;20079;-69
2021/12/23 14:28:25;;;;;;;189.77;53.22;;;;;;;;;;5094768;28;20105;-69
2021/12/23 14:30:53;;;;;;;206.52;54.25;;;;;;;;;;5095539;28;20048;-68
2021/12/23 14:33:24;;;;;;;182.02;51.78;;;;;;;;;;5095831;28;20156;-68
2021/12/23 14:35:52;;;;;;;183.07;53.38;;;;;;;;;;5096130;28;20059;-67
2021/12/23 14:38:25;;;;;;;186.65;53.45;;;;;;;;;;5095973;28;20392;-67
2021/12/23 14:41:00;;;;;;;184.10;49.38;;;;;;;;;;5095634;28;20594;-67
2021/12/23 14:43:26;;;;;;;202.57;51.55;;;;;;;;;;5095737;28;20388;-67
2021/12/23 14:45:57;;;;;;;;;;;1.20;99.90;;;;;;5096052;28;20404;-67
2021/12/23 14:48:24;;;;;;;202.98;51.05;;;;;;;;;;5095809;28;19973;-67
2021/12/23 14:51:01;;;;;;;185.63;46.95;;;;;;;;;;5095426;28;20541;-68
2021/12/23 14:53:27;;;;;;;211.48;53.10;;;;;;;;;;5094933;28;20044;-67
2021/12/23 14:55:55;;;;;;;203.30;52.10;;;;;;;;;;5095601;28;20105;-67
2021/12/23 14:58:21;;;;;;;198.00;53.45;;;;;;;;;;5095352;28;20130;-72
2021/12/23 15:00:47;;;;;;;202.77;51.38;;;;;;;;;;5095571;28;20055;-68
2021/12/23 15:03:16;;;;;;;203.68;56.20;;;;;;;;;;5095508;28;20036;-68
2021/12/23 15:05:44;;;;;;;201.27;53.63;;;;;;;;;;5095400;28;20480;-67
2021/12/23 15:08:43;;;;;;;213.15;55.00;;;1.20;99.90;;;;;;5095425;28;20126;-68
2021/12/23 15:11:10;;;;;;;209.43;53.47;;;;;;;;;;5061301;28;20450;-67
2021/12/23 15:13:41;;;;;;;226.75;54.60;;;;;;;;;;5095098;28;20043;-67
2021/12/23 15:16:10;;;;;;;223.68;54.15;;;;;;;;;;5095207;28;20051;-67
2021/12/23 15:18:53;;;;;;;260.30;60.05;;;;;;;;;;5094906;28;20050;-67
2021/12/23 15:21:31;;;;;;;265.70;60.38;;;;;;;;;;5095194;28;20446;-67
2021/12/23 15:23:57;;;;;;;247.90;58.25;;;;;;;;;;5095190;28;20036;-67
2021/12/23 15:26:28;;;;;;;265.25;65.70;;;;;;;;;;5094734;28;20514;-67
2021/12/23 15:29:09;;;;;;;282.80;66.25;;;;;;;;;;5094748;28;20044;-67